createdAt,value
2017-05-19T10:23:07.733Z,41.00
2017-05-19T10:25:35.936Z,20.42
2017-05-19T10:28:04.913Z,23.22
2017-05-19T10:30:34.000Z,15.04
2017-05-19T10:33:03.003Z,18.14
2017-05-19T10:35:31.992Z,25.42
2017-05-19T10:38:01.407Z,24.16
2017-05-19T10:40:30.386Z,19.36
2017-05-19T10:42:59.426Z,21.96
2017-05-19T10:45:27.874Z,23.56
2017-05-19T10:47:56.905Z,19.82
2017-05-19T10:50:25.103Z,16.84
2017-05-19T10:52:54.322Z,10.66
2017-05-19T10:55:23.361Z,18.02
2017-05-19T10:57:51.634Z,12.52
2017-05-19T11:00:20.781Z,16.00
2017-05-19T11:02:49.134Z,15.12
2017-05-19T11:05:18.156Z,11.62
2017-05-19T11:07:47.333Z,15.54
2017-05-19T11:10:16.406Z,13.10
2017-05-19T11:12:45.414Z,12.68
2017-05-19T11:15:13.909Z,19.06
2017-05-19T11:17:42.958Z,17.10
2017-05-19T11:20:11.992Z,16.84
2017-05-19T11:22:40.408Z,12.86
2017-05-19T11:25:09.492Z,12.16
2017-05-19T11:27:37.805Z,14.18
2017-05-19T11:30:06.969Z,12.32
2017-05-19T11:32:35.971Z,12.60
2017-05-19T11:35:04.970Z,19.00
2017-05-19T11:37:33.383Z,10.84
2017-05-19T11:40:02.521Z,15.34
2017-05-19T11:42:30.796Z,19.46
2017-05-19T11:44:59.283Z,12.44
2017-05-19T11:47:28.338Z,14.60
2017-05-19T11:49:56.588Z,20.70
2017-05-19T11:52:25.672Z,10.94
2017-05-19T11:54:53.932Z,15.24
2017-05-19T11:57:22.876Z,14.20
2017-05-19T11:59:51.301Z,12.06
2017-05-19T12:02:20.306Z,15.46
2017-05-19T12:04:48.583Z,14.28
2017-05-19T12:07:17.653Z,10.26
2017-05-19T12:09:57.397Z,15.12
2017-05-19T12:12:26.549Z,10.30
2017-05-19T12:14:55.608Z,10.44
2017-05-19T12:17:24.628Z,15.24
2017-05-19T12:19:53.789Z,13.44
2017-05-19T12:22:22.871Z,17.02
2017-05-19T12:24:51.110Z,10.46
2017-05-19T12:27:19.492Z,17.50
2017-05-19T12:29:47.793Z,11.88
2017-05-19T12:32:16.829Z,12.94
2017-05-19T12:34:45.213Z,13.04
2017-05-19T12:37:14.257Z,15.38
2017-05-19T12:39:43.266Z,12.64
2017-05-19T12:42:11.829Z,16.28
2017-05-19T12:44:40.099Z,16.16
2017-05-19T12:47:09.043Z,16.24
2017-05-19T12:49:37.440Z,13.04
2017-05-19T12:52:06.524Z,13.64
2017-05-19T12:54:35.520Z,13.50
2017-05-19T12:57:04.753Z,14.80
2017-05-19T12:59:33.049Z,12.14
2017-05-19T13:02:02.004Z,8.38
2017-05-19T13:04:31.148Z,14.62
2017-05-19T13:07:00.173Z,13.26
2017-05-19T13:09:29.201Z,12.48
2017-05-19T13:11:57.670Z,16.10
2017-05-19T13:14:26.729Z,13.52
2017-05-19T13:16:54.976Z,13.16
2017-05-19T13:19:23.401Z,12.74
2017-05-19T13:21:52.404Z,11.74
2017-05-19T13:24:21.501Z,14.40
2017-05-19T13:26:49.892Z,15.00
2017-05-19T13:29:18.901Z,9.62
2017-05-19T13:31:47.900Z,17.84
2017-05-19T13:34:17.018Z,13.56
2017-05-19T13:36:45.238Z,16.22
2017-05-19T13:39:13.489Z,12.16
2017-05-19T13:41:41.924Z,13.20
2017-05-19T13:44:11.001Z,16.04
2017-05-19T13:46:40.000Z,12.38
2017-05-19T13:49:08.397Z,18.60
2017-05-19T13:51:37.417Z,9.18
2017-05-19T13:54:05.828Z,16.12
2017-05-19T13:56:35.000Z,16.58
2017-05-19T13:59:04.040Z,15.78
2017-05-19T14:01:33.081Z,12.16
2017-05-19T14:04:02.205Z,13.26
2017-05-19T14:06:31.177Z,14.32
2017-05-19T14:09:00.202Z,19.04
2017-05-19T14:11:28.608Z,14.06
2017-05-19T14:13:56.836Z,12.18
2017-05-19T14:16:25.827Z,13.60
2017-05-19T14:18:54.984Z,14.12
2017-05-19T14:21:23.232Z,8.98
2017-05-19T14:23:52.334Z,13.10
2017-05-19T14:26:21.525Z,11.86
2017-05-19T14:28:50.584Z,10.18
2017-05-19T14:31:18.881Z,15.56
2017-05-19T14:33:47.997Z,14.24
2017-05-19T14:36:17.068Z,13.68
2017-05-19T14:38:46.198Z,12.80
2017-05-19T14:41:15.320Z,9.72
2017-05-19T14:43:43.637Z,11.28
2017-05-19T14:46:12.024Z,14.70
2017-05-19T14:48:41.205Z,17.68
2017-05-19T14:51:10.294Z,10.44
2017-05-19T14:53:39.386Z,11.38
2017-05-19T14:56:08.489Z,12.20
2017-05-19T14:58:39.289Z,9.06
2017-05-19T15:01:08.450Z,9.74
2017-05-19T15:03:37.813Z,17.72
2017-05-19T15:06:06.818Z,12.16
2017-05-19T15:08:36.019Z,15.44
2017-05-19T15:11:04.517Z,13.84
2017-05-19T15:13:34.177Z,16.16
2017-05-19T15:16:03.361Z,15.76
2017-05-19T15:18:32.877Z,13.02
2017-05-19T15:21:03.065Z,15.70
2017-05-19T15:23:32.485Z,13.50
2017-05-19T15:26:01.357Z,11.12
2017-05-19T15:28:31.042Z,10.10
2017-05-19T15:31:00.680Z,9.84
2017-05-19T15:33:31.349Z,12.00
2017-05-19T15:36:00.601Z,10.42
2017-05-19T15:38:29.369Z,13.68
2017-05-19T15:40:59.194Z,17.78
2017-05-19T15:43:29.481Z,11.26
2017-05-19T15:45:59.558Z,15.38
2017-05-19T15:48:31.280Z,18.52
2017-05-19T15:51:00.471Z,17.86
2017-05-19T15:53:29.492Z,15.40
2017-05-19T15:55:58.741Z,12.56
2017-05-19T15:58:27.893Z,15.02
2017-05-19T16:00:57.060Z,19.52
2017-05-19T16:03:26.633Z,20.40
2017-05-19T16:05:55.666Z,9.70
2017-05-19T16:08:24.823Z,14.52
2017-05-19T16:10:54.545Z,17.60
2017-05-19T16:13:24.809Z,14.04
2017-05-19T16:15:53.361Z,13.94
2017-05-19T16:18:23.287Z,13.80
2017-05-19T16:20:52.685Z,12.32
2017-05-19T16:23:21.825Z,13.76
2017-05-19T16:25:51.465Z,9.52
2017-05-19T16:28:21.285Z,13.00
2017-05-19T16:30:51.460Z,10.42
2017-05-19T16:33:19.872Z,9.24
2017-05-19T16:35:49.923Z,11.80
2017-05-19T16:38:18.440Z,17.90
2017-05-19T16:40:48.296Z,11.82
2017-05-19T16:43:17.925Z,11.68
2017-05-19T16:45:48.973Z,9.28
2017-05-19T16:48:18.995Z,14.82
2017-05-19T16:50:47.916Z,10.92
2017-05-19T16:53:16.753Z,12.24
2017-05-19T16:55:45.856Z,16.66
2017-05-19T16:58:14.239Z,9.48
2017-05-19T17:00:44.121Z,16.12
2017-05-19T17:03:14.365Z,20.20
2017-05-19T17:05:46.869Z,12.76
2017-05-19T17:08:16.069Z,14.74
2017-05-19T17:10:44.912Z,13.58
2017-05-19T17:13:14.317Z,19.92
2017-05-19T17:15:44.474Z,14.08
2017-05-19T17:18:14.400Z,11.00
2017-05-19T17:20:44.316Z,15.60
2017-05-19T17:23:13.081Z,16.40
2017-05-19T17:25:45.296Z,14.64
2017-05-19T17:28:15.124Z,13.68
2017-05-19T17:30:43.892Z,12.28
2017-05-19T17:33:13.692Z,14.20
2017-05-19T17:35:44.017Z,16.70
2017-05-19T17:38:14.077Z,13.00
2017-05-19T17:40:44.477Z,13.14
2017-05-19T17:43:14.798Z,14.80
2017-05-19T17:45:44.642Z,8.10
2017-05-19T17:48:15.029Z,15.62
2017-05-19T17:50:44.377Z,17.24
2017-05-19T17:53:13.640Z,13.32
2017-05-19T17:55:42.929Z,26.82
2017-05-19T17:58:11.880Z,16.18
2017-05-19T18:00:41.925Z,18.76
2017-05-19T18:03:11.969Z,16.82
2017-05-19T18:05:40.993Z,19.18
2017-05-19T18:08:11.176Z,20.10
2017-05-19T18:10:40.494Z,27.58
2017-05-19T18:13:10.212Z,12.16
2017-05-19T18:15:38.654Z,23.60
2017-05-19T18:18:07.721Z,22.02
2017-05-19T18:20:36.746Z,12.20
2017-05-19T18:23:05.294Z,11.20
2017-05-19T18:25:35.258Z,15.46
2017-05-19T18:28:04.349Z,20.38
2017-05-19T18:30:33.748Z,18.02
2017-05-19T18:33:03.716Z,14.34
2017-05-19T18:35:32.621Z,17.50
2017-05-19T18:38:01.704Z,14.16
2017-05-19T18:40:31.174Z,13.50
2017-05-19T18:43:00.460Z,11.58
2017-05-19T18:45:30.154Z,15.16
2017-05-19T18:47:58.398Z,19.94
2017-05-19T18:50:27.645Z,12.70
2017-05-19T18:52:57.266Z,15.42
2017-05-19T18:55:26.874Z,18.14
2017-05-19T18:57:56.304Z,14.96
2017-05-19T19:00:25.286Z,17.12
2017-05-19T19:02:54.026Z,11.26
2017-05-19T19:05:22.334Z,11.46
2017-05-19T19:07:51.472Z,13.32
2017-05-19T19:10:20.513Z,17.72
2017-05-19T19:12:49.565Z,16.50
2017-05-19T19:15:18.704Z,18.02
2017-05-19T19:17:46.952Z,15.24
2017-05-19T19:20:16.801Z,15.30
2017-05-19T19:22:45.192Z,18.14
2017-05-19T19:25:14.185Z,15.64
2017-05-19T19:27:42.590Z,19.86
2017-05-19T19:30:11.728Z,16.82
2017-05-19T19:32:40.734Z,17.34
2017-05-19T19:35:09.078Z,14.52
2017-05-19T19:37:38.245Z,28.62
2017-05-19T19:40:07.377Z,34.52
2017-05-19T19:42:35.635Z,33.06
2017-05-19T19:45:04.823Z,25.28
2017-05-19T19:47:34.040Z,24.78
2017-05-19T19:50:02.294Z,29.56
2017-05-19T19:52:30.657Z,32.40
2017-05-19T19:54:59.750Z,33.24
2017-05-19T19:57:28.094Z,28.64
2017-05-19T19:59:56.490Z,25.44
2017-05-19T20:02:25.450Z,22.36
2017-05-19T20:04:53.758Z,28.76
2017-05-19T20:07:22.917Z,29.08
2017-05-19T20:09:51.228Z,21.28
2017-05-19T20:12:19.460Z,20.74
2017-05-19T20:14:48.602Z,17.06
2017-05-19T20:17:16.805Z,21.56
2017-05-19T20:19:45.049Z,27.22
2017-05-19T20:22:13.457Z,22.90
2017-05-19T20:24:41.649Z,20.42
2017-05-19T20:27:10.688Z,31.84
2017-05-19T20:29:39.828Z,18.30
2017-05-19T20:32:08.856Z,20.54
2017-05-19T20:34:37.885Z,19.42
2017-05-19T20:37:07.881Z,16.42
2017-05-19T20:39:36.944Z,18.68
2017-05-19T20:42:05.266Z,17.94
2017-05-19T20:44:33.717Z,22.24
2017-05-19T20:47:02.741Z,21.84
2017-05-19T20:49:36.880Z,18.46
2017-05-19T20:52:07.703Z,21.58
2017-05-19T20:54:41.098Z,22.32
2017-05-19T20:57:09.605Z,25.70
2017-05-19T20:59:38.742Z,23.84
2017-05-19T21:02:07.721Z,19.56
2017-05-19T21:04:36.230Z,21.28
2017-05-19T21:07:05.256Z,21.36
2017-05-19T21:09:33.692Z,18.88
2017-05-19T21:12:02.744Z,19.48
2017-05-19T21:14:31.725Z,25.94
2017-05-19T21:17:00.934Z,17.46
2017-05-19T21:19:30.029Z,19.20
2017-05-19T21:21:58.332Z,22.94
2017-05-19T21:24:27.507Z,18.30
2017-05-19T21:26:56.577Z,16.22
2017-05-19T21:29:25.629Z,21.36
2017-05-19T21:31:54.840Z,21.68
2017-05-19T21:34:23.833Z,18.22
2017-05-19T21:36:52.920Z,14.90
2017-05-19T21:39:21.471Z,18.10
2017-05-19T21:41:49.753Z,18.62
2017-05-19T21:44:18.793Z,18.96
2017-05-19T21:46:47.185Z,16.90
2017-05-19T21:49:15.441Z,21.18
2017-05-19T21:51:43.653Z,24.40
2017-05-19T21:54:12.829Z,13.78
2017-05-19T21:56:42.525Z,16.44
2017-05-19T21:59:11.552Z,20.96
2017-05-19T22:01:40.161Z,16.64
2017-05-19T22:04:08.500Z,23.52
2017-05-19T22:06:37.444Z,17.00
2017-05-19T22:09:06.677Z,19.94
2017-05-19T22:11:35.717Z,27.50
2017-05-19T22:14:04.780Z,18.96
2017-05-19T22:16:33.174Z,16.82
2017-05-19T22:19:02.217Z,18.26
2017-05-19T22:21:31.292Z,16.42
2017-05-19T22:23:59.677Z,15.60
2017-05-19T22:26:28.712Z,26.44
2017-05-19T22:28:57.793Z,18.28
2017-05-19T22:31:26.893Z,19.02
2017-05-19T22:33:55.841Z,25.28
2017-05-19T22:36:24.776Z,26.00
2017-05-19T22:38:53.153Z,22.56
2017-05-19T22:41:21.396Z,20.48
2017-05-19T22:43:49.636Z,19.38
2017-05-19T22:46:18.807Z,28.76
2017-05-19T22:48:47.853Z,27.20
2017-05-19T22:51:16.897Z,21.76
2017-05-19T22:53:46.040Z,19.96
2017-05-19T22:56:15.085Z,20.98
2017-05-19T22:58:43.394Z,25.40
2017-05-19T23:01:12.568Z,20.90
2017-05-19T23:03:41.685Z,25.32
2017-05-19T23:06:10.715Z,21.62
2017-05-19T23:08:39.134Z,17.90
2017-05-19T23:11:08.204Z,23.54
2017-05-19T23:13:37.250Z,21.20
2017-05-19T23:16:05.634Z,21.64
2017-05-19T23:18:34.673Z,18.52
2017-05-19T23:21:03.664Z,22.54
2017-05-19T23:23:32.008Z,25.28
2017-05-19T23:26:01.036Z,21.24
2017-05-19T23:28:30.055Z,21.06
2017-05-19T23:30:58.496Z,22.60
2017-05-19T23:33:27.453Z,24.94
2017-05-19T23:35:55.716Z,28.18
2017-05-19T23:38:24.125Z,22.30
2017-05-19T23:40:53.159Z,28.08
2017-05-19T23:43:21.464Z,22.86
2017-05-19T23:45:50.628Z,22.72
2017-05-19T23:48:18.928Z,22.74
2017-05-19T23:50:47.953Z,26.44
2017-05-19T23:53:17.152Z,22.14
2017-05-19T23:55:45.409Z,23.10
2017-05-19T23:58:14.357Z,24.74
